sensor_id;sensor_type;location;lat;lon;timestamp;P1;durP1;ratioP1;P2;durP2;ratioP2
30466;SDS011;17258;52.560;13.046;2023-02-01T00:09:39;14.67;;;4.73;;
30466;SDS011;17258;52.560;13.046;2023-02-01T00:19:40;7.43;;;3.40;;
30466;SDS011;17258;52.560;13.046;2023-02-01T00:29:40;10.40;;;3.77;;
30466;SDS011;17258;52.560;13.046;2023-02-01T00:39:41;8.10;;;2.70;;
30466;SDS011;17258;52.560;13.046;2023-02-01T00:49:41;11.33;;;2.63;;
30466;SDS011;17258;52.560;13.046;2023-02-01T00:59:43;8.35;;;3.05;;
30466;SDS011;17258;52.560;13.046;2023-02-01T01:09:43;8.73;;;2.58;;
30466;SDS011;17258;52.560;13.046;2023-02-01T01:19:44;9.27;;;2.97;;
30466;SDS011;17258;52.560;13.046;2023-02-01T01:29:45;6.30;;;2.73;;
30466;SDS011;17258;52.560;13.046;2023-02-01T01:39:45;12.00;;;2.80;;
30466;SDS011;17258;52.560;13.046;2023-02-01T01:49:46;6.93;;;2.20;;
30466;SDS011;17258;52.560;13.046;2023-02-01T01:59:48;10.52;;;3.15;;
30466;SDS011;17258;52.560;13.046;2023-02-01T02:09:59;7.95;;;2.55;;
30466;SDS011;17258;52.560;13.046;2023-02-01T02:41:26;9.57;;;3.28;;
30466;SDS011;17258;52.560;13.046;2023-02-01T02:52:13;10.30;;;3.03;;
30466;SDS011;17258;52.560;13.046;2023-02-01T03:02:36;8.57;;;3.17;;
30466;SDS011;17258;52.560;13.046;2023-02-01T03:13:00;8.82;;;2.40;;
30466;SDS011;17258;52.560;13.046;2023-02-01T03:23:07;10.48;;;2.83;;
30466;SDS011;17258;52.560;13.046;2023-02-01T03:33:09;9.23;;;3.42;;
30466;SDS011;17258;52.560;13.046;2023-02-01T03:43:21;9.00;;;2.78;;
30466;SDS011;17258;52.560;13.046;2023-02-01T03:53:26;8.73;;;2.85;;
30466;SDS011;17258;52.560;13.046;2023-02-01T04:03:28;7.93;;;3.03;;
30466;SDS011;17258;52.560;13.046;2023-02-01T04:13:29;7.88;;;2.53;;
30466;SDS011;17258;52.560;13.046;2023-02-01T04:23:29;5.50;;;2.77;;
30466;SDS011;17258;52.560;13.046;2023-02-01T04:33:31;10.25;;;3.25;;
30466;SDS011;17258;52.560;13.046;2023-02-01T04:43:32;5.97;;;2.83;;
30466;SDS011;17258;52.560;13.046;2023-02-01T04:53:32;14.50;;;3.27;;
30466;SDS011;17258;52.560;13.046;2023-02-01T05:03:33;12.93;;;2.90;;
30466;SDS011;17258;52.560;13.046;2023-02-01T05:13:34;13.07;;;3.15;;
30466;SDS011;17258;52.560;13.046;2023-02-01T05:23:50;7.40;;;3.42;;
30466;SDS011;17258;52.560;13.046;2023-02-01T05:34:09;10.23;;;3.70;;
30466;SDS011;17258;52.560;13.046;2023-02-01T05:44:10;16.57;;;3.30;;
30466;SDS011;17258;52.560;13.046;2023-02-01T05:54:11;7.00;;;3.13;;
30466;SDS011;17258;52.560;13.046;2023-02-01T06:04:11;10.40;;;3.57;;
30466;SDS011;17258;52.560;13.046;2023-02-01T06:14:12;8.17;;;2.73;;
30466;SDS011;17258;52.560;13.046;2023-02-01T06:24:13;6.10;;;3.10;;
30466;SDS011;17258;52.560;13.046;2023-02-01T06:34:13;14.15;;;3.95;;
30466;SDS011;17258;52.560;13.046;2023-02-01T06:44:14;14.80;;;4.27;;
30466;SDS011;17258;52.560;13.046;2023-02-01T06:54:16;7.72;;;3.00;;
30466;SDS011;17258;52.560;13.046;2023-02-01T07:04:16;9.57;;;3.53;;
30466;SDS011;17258;52.560;13.046;2023-02-01T07:14:17;7.87;;;2.73;;
30466;SDS011;17258;52.560;13.046;2023-02-01T07:24:19;6.60;;;2.70;;
30466;SDS011;17258;52.560;13.046;2023-02-01T07:34:19;13.95;;;3.53;;
30466;SDS011;17258;52.560;13.046;2023-02-01T07:44:20;6.70;;;2.67;;
30466;SDS011;17258;52.560;13.046;2023-02-01T07:54:23;5.10;;;2.90;;
30466;SDS011;17258;52.560;13.046;2023-02-01T08:04:23;7.13;;;2.63;;
30466;SDS011;17258;52.560;13.046;2023-02-01T08:14:24;3.77;;;2.40;;
30466;SDS011;17258;52.560;13.046;2023-02-01T08:24:24;4.23;;;2.00;;
30466;SDS011;17258;52.560;13.046;2023-02-01T08:34:25;4.27;;;2.10;;
30466;SDS011;17258;52.560;13.046;2023-02-01T08:44:26;5.10;;;1.90;;
30466;SDS011;17258;52.560;13.046;2023-02-01T08:54:26;3.87;;;1.90;;
30466;SDS011;17258;52.560;13.046;2023-02-01T09:04:27;2.00;;;1.27;;
30466;SDS011;17258;52.560;13.046;2023-02-01T09:14:28;1.30;;;0.90;;
30466;SDS011;17258;52.560;13.046;2023-02-01T09:24:28;3.13;;;1.17;;
30466;SDS011;17258;52.560;13.046;2023-02-01T09:34:29;2.50;;;1.20;;
30466;SDS011;17258;52.560;13.046;2023-02-01T09:44:40;1.95;;;1.35;;
30466;SDS011;17258;52.560;13.046;2023-02-01T09:55:48;1.25;;;1.15;;
30466;SDS011;17258;52.560;13.046;2023-02-01T10:16:31;2.92;;;1.40;;
30466;SDS011;17258;52.560;13.046;2023-02-01T10:26:59;3.20;;;1.58;;
30466;SDS011;17258;52.560;13.046;2023-02-01T10:47:32;6.90;;;1.67;;
30466;SDS011;17258;52.560;13.046;2023-02-01T10:57:32;2.45;;;1.45;;
30466;SDS011;17258;52.560;13.046;2023-02-01T11:07:33;4.90;;;2.00;;
30466;SDS011;17258;52.560;13.046;2023-02-01T11:17:38;7.07;;;2.10;;
30466;SDS011;17258;52.560;13.046;2023-02-01T11:27:43;5.88;;;2.47;;
30466;SDS011;17258;52.560;13.046;2023-02-01T11:37:45;4.93;;;2.30;;
30466;SDS011;17258;52.560;13.046;2023-02-01T11:47:55;5.22;;;2.30;;
30466;SDS011;17258;52.560;13.046;2023-02-01T12:19:29;3.10;;;1.98;;
30466;SDS011;17258;52.560;13.046;2023-02-01T12:40:30;9.27;;;2.72;;
30466;SDS011;17258;52.560;13.046;2023-02-01T12:50:55;6.00;;;2.50;;
30466;SDS011;17258;52.560;13.046;2023-02-01T13:01:10;4.95;;;2.00;;
30466;SDS011;17258;52.560;13.046;2023-02-01T13:11:19;4.93;;;2.13;;
30466;SDS011;17258;52.560;13.046;2023-02-01T13:21:35;5.95;;;2.22;;
30466;SDS011;17258;52.560;13.046;2023-02-01T13:31:52;6.40;;;2.28;;
30466;SDS011;17258;52.560;13.046;2023-02-01T13:42:00;5.55;;;1.90;;
30466;SDS011;17258;52.560;13.046;2023-02-01T13:52:32;6.15;;;1.88;;
30466;SDS011;17258;52.560;13.046;2023-02-01T14:03:42;10.35;;;2.00;;
30466;SDS011;17258;52.560;13.046;2023-02-01T14:13:50;3.28;;;1.85;;
30466;SDS011;17258;52.560;13.046;2023-02-01T14:23:38;7.18;;;2.58;;
30466;SDS011;17258;52.560;13.046;2023-02-01T14:33:47;4.25;;;2.20;;
30466;SDS011;17258;52.560;13.046;2023-02-01T14:43:49;4.63;;;2.30;;
30466;SDS011;17258;52.560;13.046;2023-02-01T14:54:11;6.63;;;2.20;;
30466;SDS011;17258;52.560;13.046;2023-02-01T15:04:15;2.10;;;1.13;;
30466;SDS011;17258;52.560;13.046;2023-02-01T15:14:18;2.28;;;1.17;;
30466;SDS011;17258;52.560;13.046;2023-02-01T15:24:20;1.47;;;1.00;;
30466;SDS011;17258;52.560;13.046;2023-02-01T15:34:48;1.52;;;1.13;;
30466;SDS011;17258;52.560;13.046;2023-02-01T15:44:49;1.48;;;0.93;;
30466;SDS011;17258;52.560;13.046;2023-02-01T15:54:52;0.43;;;0.43;;
30466;SDS011;17258;52.560;13.046;2023-02-01T16:14:59;0.77;;;0.77;;
30466;SDS011;17258;52.560;13.046;2023-02-01T16:25:00;0.50;;;0.50;;
30466;SDS011;17258;52.560;13.046;2023-02-01T16:35:01;0.50;;;0.50;;
30466;SDS011;17258;52.560;13.046;2023-02-01T16:45:02;0.77;;;0.73;;
30466;SDS011;17258;52.560;13.046;2023-02-01T16:55:08;0.73;;;0.73;;
30466;SDS011;17258;52.560;13.046;2023-02-01T17:05:13;3.65;;;1.60;;
30466;SDS011;17258;52.560;13.046;2023-02-01T17:15:14;0.70;;;0.70;;
30466;SDS011;17258;52.560;13.046;2023-02-01T17:25:19;2.25;;;1.33;;
30466;SDS011;17258;52.560;13.046;2023-02-01T17:35:22;2.72;;;1.05;;
30466;SDS011;17258;52.560;13.046;2023-02-01T17:46:00;3.92;;;1.30;;
30466;SDS011;17258;52.560;13.046;2023-02-01T17:55:56;5.68;;;1.42;;
30466;SDS011;17258;52.560;13.046;2023-02-01T18:05:57;3.07;;;1.23;;
30466;SDS011;17258;52.560;13.046;2023-02-01T18:16:00;1.50;;;1.20;;
30466;SDS011;17258;52.560;13.046;2023-02-01T18:26:02;1.65;;;1.00;;
30466;SDS011;17258;52.560;13.046;2023-02-01T18:36:03;2.53;;;1.25;;
30466;SDS011;17258;52.560;13.046;2023-02-01T18:46:04;2.42;;;1.05;;
30466;SDS011;17258;52.560;13.046;2023-02-01T18:56:06;2.67;;;1.15;;
30466;SDS011;17258;52.560;13.046;2023-02-01T19:06:08;2.33;;;1.35;;
30466;SDS011;17258;52.560;13.046;2023-02-01T19:26:14;5.70;;;1.73;;
30466;SDS011;17258;52.560;13.046;2023-02-01T19:36:16;2.65;;;1.48;;
30466;SDS011;17258;52.560;13.046;2023-02-01T19:46:16;3.23;;;1.60;;
30466;SDS011;17258;52.560;13.046;2023-02-01T19:56:17;11.80;;;2.63;;
30466;SDS011;17258;52.560;13.046;2023-02-01T20:06:18;5.90;;;2.50;;
30466;SDS011;17258;52.560;13.046;2023-02-01T20:16:19;3.70;;;1.98;;
30466;SDS011;17258;52.560;13.046;2023-02-01T20:26:20;4.65;;;2.00;;
30466;SDS011;17258;52.560;13.046;2023-02-01T20:36:26;4.88;;;1.52;;
30466;SDS011;17258;52.560;13.046;2023-02-01T20:46:28;4.03;;;1.88;;
30466;SDS011;17258;52.560;13.046;2023-02-01T20:56:29;6.50;;;2.10;;
30466;SDS011;17258;52.560;13.046;2023-02-01T21:06:30;3.83;;;1.63;;
30466;SDS011;17258;52.560;13.046;2023-02-01T21:16:30;5.63;;;1.97;;
30466;SDS011;17258;52.560;13.046;2023-02-01T21:26:31;5.82;;;1.98;;
30466;SDS011;17258;52.560;13.046;2023-02-01T21:36:41;4.68;;;2.00;;
30466;SDS011;17258;52.560;13.046;2023-02-01T21:46:42;3.33;;;1.50;;
30466;SDS011;17258;52.560;13.046;2023-02-01T21:56:43;5.38;;;1.70;;
30466;SDS011;17258;52.560;13.046;2023-02-01T22:06:44;2.45;;;1.60;;
30466;SDS011;17258;52.560;13.046;2023-02-01T22:16:45;4.72;;;1.60;;
30466;SDS011;17258;52.560;13.046;2023-02-01T22:26:46;9.65;;;1.75;;
30466;SDS011;17258;52.560;13.046;2023-02-01T22:36:47;2.13;;;1.50;;
30466;SDS011;17258;52.560;13.046;2023-02-01T22:46:48;4.95;;;1.77;;
30466;SDS011;17258;52.560;13.046;2023-02-01T22:56:49;3.78;;;2.08;;
30466;SDS011;17258;52.560;13.046;2023-02-01T23:06:50;5.47;;;1.90;;
30466;SDS011;17258;52.560;13.046;2023-02-01T23:16:51;6.07;;;2.40;;
30466;SDS011;17258;52.560;13.046;2023-02-01T23:26:52;8.27;;;2.90;;
30466;SDS011;17258;52.560;13.046;2023-02-01T23:36:52;6.57;;;2.97;;
30466;SDS011;17258;52.560;13.046;2023-02-01T23:46:53;7.03;;;3.00;;
30466;SDS011;17258;52.560;13.046;2023-02-01T23:56:54;9.50;;;3.17;;
